Weather at Turkey Creek Airport

Public forecast

Using degrees Fahrenheit for public forecast. Weather courtesy of forecast.io.

Closest aviation weather report (METAR) to Turkey Creek Airport

Closest report is Birmingham-Shuttlesworth International Airport, 10.0 nm (18.4 km) S. Retrieved 2020/11/23 22:53 UTC (32 minutes ago):

KBHM 232253Z 02004KT 10SM FEW250 11/00 A3026 RMK AO2 SLP247 T01110000

Closest aviation forecast (TAF) to Turkey Creek Airport

Closest forecast is Birmingham-Shuttlesworth International Airport, 10.0 nm (18.4 km) S. Retrieved 2020/11/23 18:22 UTC (5 hours ago):

TAF KBHM 231720Z 2318/2418 36008KT P6SM SKC FM240100 00000KT P6SM FEW250